createdAt,value
2023-02-07T00:02:55.444Z,68.2
2023-02-07T00:04:56.481Z,79
2023-02-07T00:06:57.580Z,62.8
2023-02-07T00:08:58.666Z,53.1
2023-02-07T00:13:00.813Z,88.7
2023-02-07T00:15:01.903Z,65.9
2023-02-07T00:17:06.240Z,67.7
2023-02-07T00:19:07.320Z,81.7
2023-02-07T00:21:08.422Z,57.7
2023-02-07T00:23:09.460Z,71.6
2023-02-07T00:25:10.573Z,63.4
2023-02-07T00:33:18.093Z,67.6
2023-02-07T00:35:19.149Z,41
2023-02-07T00:37:47.580Z,60.7
2023-02-07T00:39:48.678Z,53.4
2023-02-07T00:41:49.736Z,45.3
2023-02-07T00:43:54.087Z,43.3
2023-02-07T00:45:55.181Z,47.5
2023-02-07T00:47:56.209Z,43.1
2023-02-07T01:00:05.947Z,57.6
2023-02-07T01:02:06.999Z,41.7
2023-02-07T01:04:08.124Z,40.1
2023-02-07T01:06:09.148Z,44.8
2023-02-07T01:10:11.302Z,53.8
2023-02-07T01:12:15.626Z,55.3
2023-02-07T01:14:16.711Z,45.3
2023-02-07T01:16:17.792Z,38.2
2023-02-07T01:18:18.824Z,42.5
2023-02-07T01:30:28.507Z,55.7
2023-02-07T01:31:30.807Z,64.8
2023-02-07T01:33:31.757Z,56.4
2023-02-07T01:35:32.833Z,50.6
2023-02-07T01:37:33.892Z,51.1
2023-02-07T01:39:38.249Z,61.5
2023-02-07T01:41:39.306Z,49.2
2023-02-07T01:43:40.365Z,54.1
2023-02-07T01:45:41.564Z,50.2
2023-02-07T01:47:42.513Z,60.1
2023-02-07T01:49:43.563Z,68.5
2023-02-07T01:51:44.665Z,49.1
2023-02-07T01:53:48.987Z,59.1
2023-02-07T01:55:50.036Z,48.1
2023-02-07T01:57:51.115Z,56.1
2023-02-07T01:59:52.176Z,66.9
2023-02-07T02:01:53.259Z,56.2
2023-02-07T02:03:54.314Z,53.6
2023-02-07T02:05:55.349Z,63.6
2023-02-07T02:07:59.669Z,95.9
2023-02-07T02:12:01.828Z,94.8
2023-02-07T02:14:02.863Z,89
2023-02-07T02:16:03.944Z,73.1
2023-02-07T02:18:04.993Z,80.9
2023-02-07T02:20:06.057Z,94.2
2023-02-07T02:22:10.394Z,102.8
2023-02-07T02:24:11.434Z,100.2
2023-02-07T02:26:12.501Z,121.1
2023-02-07T02:27:14.657Z,68.1
2023-02-07T02:29:15.732Z,76.3
2023-02-07T02:31:16.818Z,76.6
2023-02-07T02:33:17.835Z,74.1
2023-02-07T02:35:22.158Z,93.6
2023-02-07T02:37:23.238Z,106.3
2023-02-07T02:41:25.352Z,93.7
2023-02-07T02:43:26.429Z,100.4
2023-02-07T02:45:29.030Z,88.1
2023-02-07T02:47:30.051Z,125.9
2023-02-07T02:49:34.370Z,113.5
2023-02-07T02:51:35.420Z,108.7
2023-02-07T02:53:36.516Z,133.5
2023-02-07T02:55:37.848Z,103.2
2023-02-07T02:57:38.643Z,131
2023-02-07T02:59:39.704Z,103.6
2023-02-07T03:07:47.231Z,96.9
2023-02-07T03:09:48.313Z,100.3
2023-02-07T03:11:49.389Z,89.2
2023-02-07T03:13:50.461Z,104.6
2023-02-07T03:15:51.496Z,99.3
2023-02-07T03:17:55.829Z,117.1
2023-02-07T03:19:56.875Z,104.4
2023-02-07T03:21:57.958Z,118.7
2023-02-07T03:23:00.161Z,93.7
2023-02-07T03:25:01.174Z,118.5
2023-02-07T03:27:02.233Z,122.4
2023-02-07T03:29:03.421Z,120.5
2023-02-07T03:31:07.668Z,108.1
2023-02-07T03:33:08.670Z,100.7
2023-02-07T03:35:09.776Z,113.5
2023-02-07T03:37:10.809Z,128.2
2023-02-07T03:39:11.870Z,104.6
2023-02-07T03:41:12.944Z,115.7
2023-02-07T03:43:13.975Z,110.2
2023-02-07T03:45:18.331Z,114.5
2023-02-07T03:47:19.381Z,94.6
2023-02-07T03:49:20.421Z,96.6
2023-02-07T03:51:21.503Z,94.3
2023-02-07T03:53:22.555Z,115.3
2023-02-07T03:55:23.585Z,99.5
2023-02-07T03:57:24.634Z,119.8
2023-02-07T03:59:28.946Z,151.4
2023-02-07T04:01:30.010Z,130.3
2023-02-07T04:03:31.050Z,124.9
2023-02-07T04:05:32.108Z,110.7
2023-02-07T04:07:33.143Z,124.9
2023-02-07T04:09:34.197Z,116.2
2023-02-07T04:11:35.225Z,116.8
2023-02-07T04:13:39.569Z,120.9
2023-02-07T04:15:40.705Z,124.8
2023-02-07T04:17:41.632Z,113.4
2023-02-07T04:20:02.050Z,122.8
2023-02-07T04:22:03.099Z,110.6
2023-02-07T04:26:08.481Z,115.3
2023-02-07T04:36:13.714Z,125.8
2023-02-07T04:38:14.775Z,91.8
2023-02-07T04:40:19.069Z,100.9
2023-02-07T04:42:20.112Z,104.8
2023-02-07T04:44:21.163Z,107.6
2023-02-07T04:46:22.200Z,98.4
2023-02-07T04:48:23.258Z,106.4
2023-02-07T04:50:24.287Z,110.3
2023-02-07T04:52:25.300Z,106
2023-02-07T04:54:29.636Z,115
2023-02-07T04:56:30.700Z,83.8
2023-02-07T04:58:31.706Z,102.4
2023-02-07T05:00:32.733Z,108.1
2023-02-07T05:02:33.816Z,109.2
2023-02-07T05:04:34.898Z,101.4
2023-02-07T05:06:35.882Z,85.4
2023-02-07T05:08:40.166Z,104
2023-02-07T05:10:41.255Z,100.6
2023-02-07T05:12:42.246Z,95.4
2023-02-07T05:13:44.387Z,101.8
2023-02-07T05:15:45.431Z,102.1
2023-02-07T05:19:47.453Z,101.1
2023-02-07T05:21:51.795Z,112.7
2023-02-07T05:23:52.840Z,103.1
2023-02-07T05:25:53.865Z,106.5
2023-02-07T05:27:54.916Z,75.6
2023-02-07T05:33:57.988Z,95.6
2023-02-07T05:36:02.291Z,90.4
2023-02-07T05:38:03.343Z,104.2
2023-02-07T05:40:04.378Z,82.9
2023-02-07T05:42:05.404Z,84.2
2023-02-07T05:44:06.407Z,86.6
2023-02-07T05:46:07.437Z,82.9
2023-02-07T05:48:08.492Z,80.1
2023-02-07T05:52:13.771Z,74.5
2023-02-07T05:54:14.797Z,81.2
2023-02-07T05:56:15.818Z,96.9
2023-02-07T06:02:18.898Z,79.7
2023-02-07T06:09:27.354Z,73
2023-02-07T06:11:28.362Z,87
2023-02-07T06:13:29.401Z,89
2023-02-07T06:15:30.455Z,87.7
2023-02-07T06:23:37.750Z,98.4
2023-02-07T06:25:39.046Z,96.6
2023-02-07T06:27:39.792Z,86.5
2023-02-07T06:35:47.099Z,101.2
2023-02-07T06:37:48.123Z,73.3
2023-02-07T06:39:49.142Z,82.6
2023-02-07T06:41:50.167Z,88.8
2023-02-07T06:43:51.213Z,100.4
2023-02-07T06:45:55.442Z,108.4
2023-02-07T06:47:56.536Z,92.4
2023-02-07T06:49:57.475Z,112.8
2023-02-07T06:51:58.484Z,99.7
2023-02-07T06:58:01.574Z,94.2
2023-02-07T07:04:07.784Z,113.6
2023-02-07T07:05:09.945Z,110.5
2023-02-07T07:07:10.953Z,98.6
2023-02-07T07:09:11.951Z,113.6
2023-02-07T07:11:12.965Z,111.4
2023-02-07T07:13:17.219Z,118.4
2023-02-07T07:15:18.214Z,112.5
2023-02-07T07:17:19.233Z,103.2
2023-02-07T07:19:20.217Z,93.9
2023-02-07T07:21:21.238Z,99
2023-02-07T07:23:22.243Z,97
2023-02-07T07:25:23.247Z,95.8
2023-02-07T07:27:27.566Z,83.4
2023-02-07T07:31:29.544Z,104.6
2023-02-07T07:35:31.528Z,113.4
2023-02-07T07:37:32.531Z,98.8
2023-02-07T07:41:37.807Z,122.3
2023-02-07T07:43:38.837Z,113.6
2023-02-07T07:45:39.844Z,112.1
2023-02-07T07:47:40.843Z,99.6
2023-02-07T07:51:42.868Z,105.5
2023-02-07T07:53:43.870Z,98
2023-02-07T07:55:48.168Z,123.6
2023-02-07T07:57:49.177Z,101.5
2023-02-07T07:59:50.182Z,105.5
2023-02-07T08:02:18.655Z,111.8
2023-02-07T08:04:19.674Z,115.8
2023-02-07T08:06:20.680Z,103
2023-02-07T08:08:24.955Z,99.1
2023-02-07T08:10:25.977Z,100.6
2023-02-07T08:12:27.041Z,100.3
2023-02-07T08:14:28.050Z,93.5
2023-02-07T08:16:29.222Z,97
2023-02-07T08:18:30.113Z,100.5
2023-02-07T08:20:31.130Z,83.6
2023-02-07T08:26:37.479Z,88.4
2023-02-07T08:28:38.506Z,92.7
2023-02-07T08:30:39.876Z,96.1
2023-02-07T08:34:43.181Z,90.4
2023-02-07T08:36:47.455Z,86.9
2023-02-07T08:38:48.495Z,113.3
2023-02-07T08:40:49.566Z,94.4
2023-02-07T08:42:50.602Z,80.3
2023-02-07T08:44:51.624Z,86.2
2023-02-07T08:46:52.693Z,76.1
2023-02-07T08:50:58.037Z,95.4
2023-02-07T08:52:59.101Z,67.5
2023-02-07T08:55:00.185Z,80.5
2023-02-07T08:58:03.400Z,73.7
2023-02-07T09:00:04.437Z,82.1
2023-02-07T09:04:09.892Z,77.1
2023-02-07T09:06:10.935Z,81.9
2023-02-07T09:08:11.993Z,78.9
2023-02-07T09:10:13.057Z,77.2
2023-02-07T09:12:14.131Z,63.3
2023-02-07T09:14:15.172Z,73.4
2023-02-07T09:16:16.294Z,81.9
2023-02-07T09:18:20.566Z,72.9
2023-02-07T09:20:21.641Z,80.2
2023-02-07T09:32:31.335Z,81.1
2023-02-07T09:34:32.424Z,81.3
2023-02-07T09:38:34.567Z,68.1
2023-02-07T09:44:37.916Z,72.3
2023-02-07T09:46:42.154Z,70.9
2023-02-07T09:48:43.228Z,77.1
2023-02-07T09:55:48.684Z,58.8
2023-02-07T09:57:49.777Z,69
2023-02-07T10:06:01.503Z,64.4
2023-02-07T10:07:58.656Z,56.7
2023-02-07T10:16:06.502Z,37
2023-02-07T10:18:07.558Z,44.2
2023-02-07T10:20:08.734Z,37.7
2023-02-07T10:22:09.902Z,40
2023-02-07T10:24:11.087Z,46.3
2023-02-07T10:26:12.190Z,39
2023-02-07T10:28:16.676Z,40.7
2023-02-07T10:30:17.811Z,41.3
2023-02-07T10:32:18.983Z,35.6
2023-02-07T10:34:20.197Z,30.1
2023-02-07T10:36:21.337Z,33.5
2023-02-07T10:38:22.559Z,66.6
2023-02-07T10:40:23.756Z,46.4
2023-02-07T10:42:28.172Z,59.2
2023-02-07T10:44:29.353Z,40.5
2023-02-07T10:46:30.637Z,36.8
2023-02-07T10:49:33.930Z,50.3
2023-02-07T10:53:43.015Z,28.2
2023-02-07T10:55:40.749Z,24.5
2023-02-07T10:57:45.966Z,24.5
2023-02-07T10:59:43.147Z,33.1
2023-02-07T11:07:48.300Z,28.2
2023-02-07T11:09:52.554Z,31
2023-02-07T11:11:53.574Z,25.8
2023-02-07T11:13:54.771Z,25.2
2023-02-07T11:17:57.206Z,21.3
2023-02-07T11:19:58.361Z,23.5
2023-02-07T11:21:59.559Z,18
2023-02-07T11:24:04.024Z,28.8
2023-02-07T11:26:05.226Z,22.8
2023-02-07T11:28:06.468Z,23.4
2023-02-07T11:30:07.605Z,21.4
2023-02-07T11:32:08.820Z,19.7
2023-02-07T11:34:10.037Z,16.9
2023-02-07T11:38:15.706Z,25.8
2023-02-07T11:40:16.934Z,25
2023-02-07T11:42:18.100Z,24
2023-02-07T11:46:47.728Z,21.5
2023-02-07T11:48:48.882Z,22.3
2023-02-07T12:03:00.559Z,17.2
2023-02-07T12:07:06.248Z,9.9
2023-02-07T12:09:07.444Z,12.9
2023-02-07T12:11:08.585Z,12
2023-02-07T12:13:09.799Z,17.7
2023-02-07T12:15:10.971Z,9.1
2023-02-07T12:17:12.143Z,16.1
2023-02-07T12:21:17.803Z,12.8
2023-02-07T12:23:40.736Z,10.7
2023-02-07T12:25:20.208Z,13
2023-02-07T12:27:21.345Z,10.2
2023-02-07T12:29:22.521Z,21.3
2023-02-07T12:31:23.845Z,12.6
2023-02-07T12:33:28.161Z,10.2
2023-02-07T12:35:29.331Z,11.6
2023-02-07T12:38:32.750Z,10.6
2023-02-07T12:40:33.931Z,15.9
2023-02-07T12:42:35.087Z,11.5
2023-02-07T12:44:36.281Z,10.6
2023-02-07T12:46:40.693Z,10.2
2023-02-07T12:48:41.895Z,12.7
2023-02-07T12:50:43.055Z,22.1
2023-02-07T12:52:44.234Z,15.2
2023-02-07T12:54:45.425Z,16.6
2023-02-07T12:56:46.634Z,18.9
2023-02-07T12:58:47.810Z,13.4
2023-02-07T13:00:52.283Z,9.4
2023-02-07T13:02:53.446Z,9.3
2023-02-07T13:04:54.600Z,18.7
2023-02-07T13:06:55.801Z,14.5
2023-02-07T13:12:59.335Z,8.6
2023-02-07T13:15:03.789Z,24.2
2023-02-07T13:17:04.947Z,15
2023-02-07T13:19:06.128Z,9.4
2023-02-07T13:21:07.304Z,8.7
2023-02-07T13:23:08.456Z,9.4
2023-02-07T13:25:09.661Z,13.5
2023-02-07T13:27:10.891Z,9.2
2023-02-07T13:34:19.910Z,14.4
2023-02-07T13:36:21.102Z,15
2023-02-07T13:42:27.874Z,20.3
2023-02-07T13:44:29.085Z,12.6
2023-02-07T13:46:30.334Z,20.9
2023-02-07T13:48:31.417Z,11.9
2023-02-07T13:50:32.608Z,12.2
2023-02-07T13:52:33.783Z,11.9
2023-02-07T13:54:34.946Z,35.7
2023-02-07T13:56:39.378Z,15.7
2023-02-07T14:00:41.736Z,14.6
2023-02-07T14:04:44.082Z,15.8
2023-02-07T14:06:45.253Z,20.4
2023-02-07T14:15:02.277Z,15.1
2023-02-07T14:16:54.404Z,27.8
2023-02-07T14:22:57.913Z,35.7
2023-02-07T14:25:03.912Z,16.5
2023-02-07T14:27:05.046Z,18.1
2023-02-07T14:29:06.246Z,14.4
2023-02-07T14:30:08.456Z,18
2023-02-07T14:32:09.657Z,14.1
2023-02-07T14:34:10.826Z,14.2
2023-02-07T14:36:12.001Z,13
2023-02-07T14:38:16.434Z,14.1
2023-02-07T14:40:17.862Z,13.2
2023-02-07T14:42:18.789Z,16.8
2023-02-07T14:44:20.006Z,17.1
2023-02-07T14:46:21.347Z,15.5
2023-02-07T14:48:22.388Z,16.2
2023-02-07T14:50:23.553Z,18.6
2023-02-07T14:52:28.003Z,19.1
2023-02-07T14:54:29.182Z,12.4
2023-02-07T14:56:30.388Z,19.3
2023-02-07T15:00:32.751Z,11.7
2023-02-07T15:02:34.035Z,13.7
2023-02-07T15:04:35.084Z,13
2023-02-07T15:06:39.558Z,12.8
2023-02-07T15:08:40.720Z,12.5
2023-02-07T15:10:42.535Z,12
2023-02-07T15:12:43.079Z,15.4
2023-02-07T15:14:44.234Z,10.7
2023-02-07T15:16:45.598Z,13.2
2023-02-07T15:18:46.620Z,11.1
2023-02-07T15:22:52.223Z,12.1
2023-02-07T15:24:53.407Z,9.5
2023-02-07T15:27:21.803Z,10
2023-02-07T15:29:25.265Z,25.9
2023-02-07T15:31:24.286Z,15.6
2023-02-07T15:33:28.565Z,14.2
2023-02-07T15:35:29.735Z,16
2023-02-07T15:37:30.902Z,9.5
2023-02-07T15:39:32.081Z,19.8
2023-02-07T15:41:33.274Z,16.3
2023-02-07T15:43:34.437Z,11.2
2023-02-07T15:45:35.631Z,23.4
2023-02-07T15:47:40.004Z,12.1
2023-02-07T15:49:41.200Z,16.2
2023-02-07T15:51:42.365Z,11.4
2023-02-07T15:53:43.541Z,15.9
2023-02-07T15:55:44.703Z,15.6
2023-02-07T15:57:45.877Z,15.4
2023-02-07T15:59:47.023Z,11
2023-02-07T16:03:52.639Z,11.8
2023-02-07T16:07:54.979Z,12.8
2023-02-07T16:09:56.127Z,11.4
2023-02-07T16:11:57.303Z,11.6
2023-02-07T16:13:58.439Z,14.3
2023-02-07T16:16:02.934Z,13.8
2023-02-07T16:18:04.071Z,15.6
2023-02-07T16:20:05.196Z,15.9
2023-02-07T16:21:07.412Z,17.5
2023-02-07T16:23:08.591Z,10.7
2023-02-07T16:25:09.727Z,15.8
2023-02-07T16:33:17.600Z,13.4
2023-02-07T16:35:18.739Z,16.5
2023-02-07T16:37:19.897Z,14.9
2023-02-07T16:41:22.159Z,16.3
2023-02-07T16:43:26.568Z,35.6
2023-02-07T16:45:27.788Z,17.3
2023-02-07T16:47:28.898Z,14.9
2023-02-07T16:49:30.025Z,27.2
2023-02-07T16:51:31.174Z,32.5
2023-02-07T16:53:32.326Z,31
2023-02-07T16:55:33.462Z,27.2
2023-02-07T16:57:37.885Z,33.4
2023-02-07T16:59:39.022Z,25.7
2023-02-07T17:01:40.133Z,19.8
2023-02-07T17:03:41.281Z,28.5
2023-02-07T17:05:42.401Z,21.7
2023-02-07T17:07:43.528Z,22.9
2023-02-07T17:09:44.669Z,25.9
2023-02-07T17:11:49.055Z,22.4
2023-02-07T17:13:50.222Z,19.6
2023-02-07T17:15:51.344Z,23.8
2023-02-07T17:16:53.559Z,27.4
2023-02-07T17:18:54.668Z,18.1
2023-02-07T17:22:56.936Z,17.4
2023-02-07T17:27:02.468Z,17.9
2023-02-07T17:29:03.621Z,26.9
2023-02-07T17:31:04.794Z,19.7
2023-02-07T17:33:05.899Z,28.6
2023-02-07T17:35:07.029Z,31.2
2023-02-07T17:37:08.134Z,24.5
2023-02-07T17:43:14.843Z,24.4
2023-02-07T17:45:15.979Z,26
2023-02-07T17:47:17.114Z,23
2023-02-07T17:49:18.262Z,27.7
2023-02-07T17:51:19.396Z,22.4
2023-02-07T17:59:27.192Z,26.6
2023-02-07T18:03:29.458Z,26.5
2023-02-07T18:11:37.238Z,32.5
2023-02-07T18:12:39.445Z,28.2
2023-02-07T18:14:40.595Z,26.9
2023-02-07T18:16:41.724Z,41.8
2023-02-07T18:18:42.870Z,47.7
2023-02-07T18:20:47.235Z,47.1
2023-02-07T18:22:48.381Z,39.8
2023-02-07T18:24:49.518Z,35.3
2023-02-07T18:26:52.589Z,43.8
2023-02-07T18:28:51.808Z,47.9
2023-02-07T18:30:52.986Z,42.2
2023-02-07T18:32:54.035Z,41
2023-02-07T18:34:58.449Z,38.9
2023-02-07T18:36:59.559Z,50.3
2023-02-07T18:39:00.696Z,60.6
2023-02-07T18:41:01.829Z,55.4
2023-02-07T18:43:02.932Z,63.9
2023-02-07T18:45:04.045Z,62.9
2023-02-07T18:47:05.169Z,66.4
2023-02-07T18:49:09.576Z,72.5
2023-02-07T18:55:12.932Z,86
2023-02-07T18:57:14.069Z,95.1
2023-02-07T19:01:16.297Z,77.2
2023-02-07T19:03:20.619Z,87.8
2023-02-07T19:05:21.775Z,84.6
2023-02-07T19:07:22.868Z,80.9
2023-02-07T19:15:57.855Z,83.5
2023-02-07T19:17:58.952Z,89.2
2023-02-07T19:20:00.151Z,86.1
2023-02-07T19:22:01.149Z,82.5
2023-02-07T19:24:02.254Z,73.8
2023-02-07T19:26:03.361Z,103.5
2023-02-07T19:28:04.461Z,102.1
2023-02-07T19:30:08.803Z,130.1
2023-02-07T19:32:09.885Z,123.2
2023-02-07T19:34:10.981Z,133.9
2023-02-07T19:38:13.194Z,104.1
2023-02-07T19:40:14.294Z,102
2023-02-07T19:42:15.364Z,102.4
2023-02-07T19:44:19.704Z,107.6
2023-02-07T19:46:20.859Z,109.2
2023-02-07T19:50:22.953Z,105.7
2023-02-07T20:00:31.619Z,87.8
2023-02-07T20:02:32.700Z,82.1
2023-02-07T20:09:38.120Z,60.4
2023-02-07T20:17:47.205Z,91.1
2023-02-07T20:19:48.239Z,77.9
2023-02-07T20:21:49.321Z,69.8
2023-02-07T20:23:50.345Z,68.5
2023-02-07T20:25:54.709Z,87.7
2023-02-07T20:27:55.847Z,80.6
2023-02-07T20:29:56.855Z,83
2023-02-07T20:31:57.980Z,75.1
2023-02-07T20:33:59.134Z,87.4
2023-02-07T20:36:00.052Z,72
2023-02-07T20:38:01.158Z,81.6
2023-02-07T20:40:05.441Z,69
2023-02-07T20:42:06.535Z,71
2023-02-07T20:44:07.622Z,65.5
2023-02-07T20:46:08.674Z,78.7
2023-02-07T20:48:09.725Z,65.4
2023-02-07T20:50:10.788Z,72.1
2023-02-07T20:52:11.874Z,60.8
2023-02-07T20:54:16.168Z,65.7
2023-02-07T20:56:17.255Z,72.8
2023-02-07T20:58:18.341Z,68.1
2023-02-07T20:59:20.518Z,81.8
2023-02-07T21:01:21.625Z,85.2
2023-02-07T21:07:27.994Z,99.1
2023-02-07T21:09:29.066Z,102
2023-02-07T21:11:30.130Z,103
2023-02-07T21:15:32.263Z,112.9
2023-02-07T21:17:33.322Z,120.9
2023-02-07T21:19:34.359Z,117.1
2023-02-07T21:21:38.705Z,121.5
2023-02-07T21:23:39.746Z,131.3
2023-02-07T21:25:40.822Z,107.4
2023-02-07T21:27:41.870Z,100
2023-02-07T21:29:42.937Z,104
2023-02-07T21:31:44.008Z,101.5
2023-02-07T21:35:49.368Z,99
2023-02-07T21:37:50.436Z,91.1
2023-02-07T21:39:51.489Z,84.2
2023-02-07T21:41:52.525Z,87.2
2023-02-07T21:43:53.592Z,83.9
2023-02-07T21:47:55.679Z,83.9
2023-02-07T21:50:00.007Z,92.5
2023-02-07T21:52:01.043Z,92.5
2023-02-07T21:54:02.122Z,104.3
2023-02-07T21:57:05.306Z,122
2023-02-07T22:01:07.434Z,119.3
2023-02-07T22:03:13.434Z,112.6
2023-02-07T22:13:16.973Z,127.5
2023-02-07T22:15:18.014Z,130.2
2023-02-07T22:17:22.305Z,124.2
2023-02-07T22:21:24.428Z,112.9
2023-02-07T22:27:27.577Z,95.4
2023-02-07T22:29:28.618Z,116.8
2023-02-07T22:31:33.060Z,111.3
2023-02-07T22:33:33.962Z,103.4
2023-02-07T22:35:35.003Z,91.8
2023-02-07T22:37:36.025Z,97.7
2023-02-07T22:39:37.077Z,94
2023-02-07T22:41:38.132Z,103
2023-02-07T22:43:39.150Z,92.2
2023-02-07T22:45:43.589Z,84.5
2023-02-07T22:47:44.546Z,92.5
2023-02-07T22:49:45.539Z,89.4
2023-02-07T22:52:13.996Z,82.7
2023-02-07T22:56:16.097Z,94
2023-02-07T22:58:20.372Z,80.4
2023-02-07T23:00:21.486Z,78.2
2023-02-07T23:02:22.470Z,75.7
2023-02-07T23:04:23.457Z,83.5
2023-02-07T23:06:24.530Z,65.1
2023-02-07T23:08:25.522Z,76.2
2023-02-07T23:10:26.550Z,78.3
2023-02-07T23:12:30.839Z,72.8
2023-02-07T23:14:31.894Z,74.1
2023-02-07T23:16:32.891Z,85
2023-02-07T23:20:34.965Z,82.4
2023-02-07T23:22:35.965Z,77.5
2023-02-07T23:24:37.015Z,77.5
2023-02-07T23:26:41.296Z,74
2023-02-07T23:28:42.407Z,74
2023-02-07T23:30:43.772Z,70.3
2023-02-07T23:38:47.499Z,79.4
2023-02-07T23:40:51.748Z,84.4
2023-02-07T23:45:55.981Z,105.3
2023-02-07T23:47:56.974Z,95.3
2023-02-07T23:49:58.037Z,114.3
2023-02-07T23:51:59.007Z,95.3
2023-02-07T23:54:03.500Z,76.9
2023-02-07T23:56:04.365Z,70.3
2023-02-07T23:58:05.340Z,77.4
